sensor_id;sensor_type;location;lat;lon;timestamp;P1;durP1;ratioP1;P2;durP2;ratioP2
66085;SDS011;52868;49.758;9.586;2022-09-14T00:02:19;4.65;;;3.10;;
66085;SDS011;52868;49.758;9.586;2022-09-14T00:04:45;5.70;;;3.28;;
66085;SDS011;52868;49.758;9.586;2022-09-14T00:07:10;6.53;;;3.53;;
66085;SDS011;52868;49.758;9.586;2022-09-14T00:09:36;4.75;;;3.00;;
66085;SDS011;52868;49.758;9.586;2022-09-14T00:12:01;5.57;;;3.47;;
66085;SDS011;52868;49.758;9.586;2022-09-14T00:14:27;5.70;;;3.30;;
66085;SDS011;52868;49.758;9.586;2022-09-14T00:16:53;5.85;;;3.60;;
66085;SDS011;52868;49.758;9.586;2022-09-14T00:19:23;9.70;;;3.42;;
66085;SDS011;52868;49.758;9.586;2022-09-14T00:21:51;6.22;;;3.42;;
66085;SDS011;52868;49.758;9.586;2022-09-14T00:24:19;5.22;;;3.00;;
66085;SDS011;52868;49.758;9.586;2022-09-14T00:26:46;7.80;;;3.40;;
66085;SDS011;52868;49.758;9.586;2022-09-14T00:29:12;6.97;;;3.38;;
66085;SDS011;52868;49.758;9.586;2022-09-14T00:31:38;8.43;;;3.35;;
66085;SDS011;52868;49.758;9.586;2022-09-14T00:34:05;5.65;;;2.92;;
66085;SDS011;52868;49.758;9.586;2022-09-14T00:36:35;5.60;;;3.33;;
66085;SDS011;52868;49.758;9.586;2022-09-14T00:39:03;7.40;;;3.08;;
66085;SDS011;52868;49.758;9.586;2022-09-14T00:41:31;5.18;;;3.25;;
66085;SDS011;52868;49.758;9.586;2022-09-14T00:44:03;6.30;;;3.58;;
66085;SDS011;52868;49.758;9.586;2022-09-14T00:46:35;7.00;;;3.00;;
66085;SDS011;52868;49.758;9.586;2022-09-14T00:49:15;4.88;;;3.08;;
66085;SDS011;52868;49.758;9.586;2022-09-14T00:51:55;7.30;;;3.13;;
66085;SDS011;52868;49.758;9.586;2022-09-14T00:54:25;5.93;;;3.40;;
66085;SDS011;52868;49.758;9.586;2022-09-14T00:56:51;8.90;;;2.92;;
66085;SDS011;52868;49.758;9.586;2022-09-14T00:59:19;4.50;;;3.10;;
66085;SDS011;52868;49.758;9.586;2022-09-14T01:01:49;6.93;;;3.38;;
66085;SDS011;52868;49.758;9.586;2022-09-14T01:04:15;7.28;;;2.90;;
66085;SDS011;52868;49.758;9.586;2022-09-14T01:06:52;6.97;;;3.30;;
66085;SDS011;52868;49.758;9.586;2022-09-14T01:12:33;9.43;;;3.50;;
66085;SDS011;52868;49.758;9.586;2022-09-14T01:15:11;5.15;;;2.90;;
66085;SDS011;52868;49.758;9.586;2022-09-14T01:20:33;4.82;;;2.75;;
66085;SDS011;52868;49.758;9.586;2022-09-14T01:31:37;4.13;;;2.30;;
66085;SDS011;52868;49.758;9.586;2022-09-14T01:34:17;4.68;;;2.50;;
66085;SDS011;52868;49.758;9.586;2022-09-14T01:37:05;7.22;;;2.72;;
66085;SDS011;52868;49.758;9.586;2022-09-14T01:39:42;6.57;;;2.70;;
66085;SDS011;52868;49.758;9.586;2022-09-14T01:42:13;6.07;;;2.70;;
66085;SDS011;52868;49.758;9.586;2022-09-14T01:44:44;7.57;;;2.80;;
66085;SDS011;52868;49.758;9.586;2022-09-14T01:47:19;10.90;;;3.20;;
66085;SDS011;52868;49.758;9.586;2022-09-14T01:49:58;6.63;;;2.90;;
66085;SDS011;52868;49.758;9.586;2022-09-14T01:57:29;5.43;;;2.47;;
66085;SDS011;52868;49.758;9.586;2022-09-14T02:00:07;5.50;;;2.75;;
66085;SDS011;52868;49.758;9.586;2022-09-14T02:02:37;7.20;;;2.70;;
66085;SDS011;52868;49.758;9.586;2022-09-14T02:05:13;4.90;;;2.90;;
66085;SDS011;52868;49.758;9.586;2022-09-14T02:07:44;5.85;;;2.90;;
66085;SDS011;52868;49.758;9.586;2022-09-14T02:10:11;5.78;;;3.33;;
66085;SDS011;52868;49.758;9.586;2022-09-14T02:12:39;4.53;;;2.83;;
66085;SDS011;52868;49.758;9.586;2022-09-14T02:15:05;4.28;;;2.85;;
66085;SDS011;52868;49.758;9.586;2022-09-14T02:17:33;5.25;;;2.72;;
66085;SDS011;52868;49.758;9.586;2022-09-14T02:19:59;5.78;;;3.63;;
66085;SDS011;52868;49.758;9.586;2022-09-14T02:22:27;5.18;;;2.85;;
66085;SDS011;52868;49.758;9.586;2022-09-14T02:24:54;4.53;;;2.85;;
66085;SDS011;52868;49.758;9.586;2022-09-14T02:27:20;4.35;;;2.80;;
66085;SDS011;52868;49.758;9.586;2022-09-14T02:29:46;5.65;;;2.88;;
66085;SDS011;52868;49.758;9.586;2022-09-14T02:34:59;4.72;;;2.67;;
66085;SDS011;52868;49.758;9.586;2022-09-14T02:40:18;5.32;;;2.90;;
66085;SDS011;52868;49.758;9.586;2022-09-14T02:45:36;5.60;;;2.45;;
66085;SDS011;52868;49.758;9.586;2022-09-14T02:53:38;4.63;;;1.80;;
66085;SDS011;52868;49.758;9.586;2022-09-14T02:56:08;3.10;;;2.22;;
66085;SDS011;52868;49.758;9.586;2022-09-14T02:58:41;7.80;;;2.13;;
66085;SDS011;52868;49.758;9.586;2022-09-14T03:01:16;6.65;;;2.13;;
66085;SDS011;52868;49.758;9.586;2022-09-14T03:03:43;3.67;;;2.30;;
66085;SDS011;52868;49.758;9.586;2022-09-14T03:06:09;4.13;;;2.38;;
66085;SDS011;52868;49.758;9.586;2022-09-14T03:08:35;3.65;;;2.13;;
66085;SDS011;52868;49.758;9.586;2022-09-14T03:11:01;3.88;;;2.20;;
66085;SDS011;52868;49.758;9.586;2022-09-14T03:13:27;2.58;;;1.58;;
66085;SDS011;52868;49.758;9.586;2022-09-14T03:15:53;83.80;;;3.72;;
66085;SDS011;52868;49.758;9.586;2022-09-14T03:18:18;54.70;;;3.45;;
66085;SDS011;52868;49.758;9.586;2022-09-14T03:20:44;29.23;;;2.58;;
66085;SDS011;52868;49.758;9.586;2022-09-14T03:23:10;10.90;;;2.47;;
66085;SDS011;52868;49.758;9.586;2022-09-14T03:25:37;9.50;;;2.13;;
66085;SDS011;52868;49.758;9.586;2022-09-14T03:28:04;10.55;;;2.25;;
66085;SDS011;52868;49.758;9.586;2022-09-14T03:30:30;9.00;;;2.25;;
66085;SDS011;52868;49.758;9.586;2022-09-14T03:32:57;9.50;;;1.98;;
66085;SDS011;52868;49.758;9.586;2022-09-14T03:35:23;6.78;;;1.98;;
66085;SDS011;52868;49.758;9.586;2022-09-14T03:37:49;4.10;;;1.70;;
66085;SDS011;52868;49.758;9.586;2022-09-14T03:40:15;5.45;;;1.38;;
66085;SDS011;52868;49.758;9.586;2022-09-14T03:42:42;4.53;;;1.77;;
66085;SDS011;52868;49.758;9.586;2022-09-14T03:45:10;3.85;;;1.75;;
66085;SDS011;52868;49.758;9.586;2022-09-14T03:47:36;2.80;;;1.60;;
66085;SDS011;52868;49.758;9.586;2022-09-14T03:50:03;3.45;;;1.60;;
66085;SDS011;52868;49.758;9.586;2022-09-14T03:52:29;4.57;;;2.00;;
66085;SDS011;52868;49.758;9.586;2022-09-14T03:54:54;3.78;;;2.08;;
66085;SDS011;52868;49.758;9.586;2022-09-14T03:57:23;4.95;;;2.10;;
66085;SDS011;52868;49.758;9.586;2022-09-14T03:59:49;4.47;;;2.03;;
66085;SDS011;52868;49.758;9.586;2022-09-14T04:02:14;4.20;;;2.28;;
66085;SDS011;52868;49.758;9.586;2022-09-14T04:04:40;3.00;;;1.80;;
66085;SDS011;52868;49.758;9.586;2022-09-14T04:07:06;5.07;;;1.95;;
66085;SDS011;52868;49.758;9.586;2022-09-14T04:09:31;4.53;;;2.47;;
66085;SDS011;52868;49.758;9.586;2022-09-14T04:11:58;6.63;;;2.30;;
66085;SDS011;52868;49.758;9.586;2022-09-14T04:14:24;4.63;;;2.58;;
66085;SDS011;52868;49.758;9.586;2022-09-14T04:16:49;6.80;;;2.45;;
66085;SDS011;52868;49.758;9.586;2022-09-14T04:19:15;6.60;;;2.50;;
66085;SDS011;52868;49.758;9.586;2022-09-14T04:21:41;6.45;;;2.72;;
66085;SDS011;52868;49.758;9.586;2022-09-14T04:24:08;6.35;;;2.72;;
66085;SDS011;52868;49.758;9.586;2022-09-14T04:26:36;6.32;;;2.90;;
66085;SDS011;52868;49.758;9.586;2022-09-14T04:29:02;6.05;;;2.55;;
66085;SDS011;52868;49.758;9.586;2022-09-14T04:31:28;3.63;;;2.28;;
66085;SDS011;52868;49.758;9.586;2022-09-14T04:33:54;4.88;;;2.70;;
66085;SDS011;52868;49.758;9.586;2022-09-14T04:36:21;4.68;;;2.55;;
66085;SDS011;52868;49.758;9.586;2022-09-14T04:38:51;5.18;;;2.53;;
66085;SDS011;52868;49.758;9.586;2022-09-14T04:41:18;4.70;;;2.20;;
66085;SDS011;52868;49.758;9.586;2022-09-14T04:43:45;5.13;;;2.50;;
66085;SDS011;52868;49.758;9.586;2022-09-14T04:46:15;3.20;;;2.08;;
66085;SDS011;52868;49.758;9.586;2022-09-14T04:48:42;4.60;;;2.28;;
66085;SDS011;52868;49.758;9.586;2022-09-14T04:51:12;6.55;;;2.80;;
66085;SDS011;52868;49.758;9.586;2022-09-14T04:53:43;5.20;;;2.30;;
66085;SDS011;52868;49.758;9.586;2022-09-14T04:56:10;7.18;;;3.05;;
66085;SDS011;52868;49.758;9.586;2022-09-14T04:58:37;5.50;;;2.45;;
66085;SDS011;52868;49.758;9.586;2022-09-14T05:01:06;9.55;;;2.90;;
66085;SDS011;52868;49.758;9.586;2022-09-14T05:03:34;5.93;;;3.03;;
66085;SDS011;52868;49.758;9.586;2022-09-14T05:06:24;4.40;;;2.33;;
66085;SDS011;52868;49.758;9.586;2022-09-14T05:08:50;9.85;;;3.78;;
66085;SDS011;52868;49.758;9.586;2022-09-14T05:11:21;5.53;;;2.67;;
66085;SDS011;52868;49.758;9.586;2022-09-14T05:13:48;4.55;;;2.72;;
66085;SDS011;52868;49.758;9.586;2022-09-14T05:16:16;6.55;;;3.13;;
66085;SDS011;52868;49.758;9.586;2022-09-14T05:18:47;5.72;;;3.30;;
66085;SDS011;52868;49.758;9.586;2022-09-14T05:21:14;9.45;;;3.20;;
66085;SDS011;52868;49.758;9.586;2022-09-14T05:23:42;5.85;;;3.30;;
66085;SDS011;52868;49.758;9.586;2022-09-14T05:26:08;9.93;;;3.55;;
66085;SDS011;52868;49.758;9.586;2022-09-14T05:28:34;7.32;;;2.85;;
66085;SDS011;52868;49.758;9.586;2022-09-14T05:31:04;5.40;;;2.85;;
66085;SDS011;52868;49.758;9.586;2022-09-14T05:33:31;5.65;;;3.28;;
66085;SDS011;52868;49.758;9.586;2022-09-14T05:36:04;5.00;;;3.08;;
66085;SDS011;52868;49.758;9.586;2022-09-14T05:38:32;7.95;;;3.75;;
66085;SDS011;52868;49.758;9.586;2022-09-14T05:40:59;6.35;;;3.22;;
66085;SDS011;52868;49.758;9.586;2022-09-14T05:43:26;14.73;;;3.28;;
66085;SDS011;52868;49.758;9.586;2022-09-14T05:45:52;5.72;;;3.20;;
66085;SDS011;52868;49.758;9.586;2022-09-14T05:48:18;5.75;;;3.10;;
66085;SDS011;52868;49.758;9.586;2022-09-14T05:50:44;6.22;;;3.15;;
66085;SDS011;52868;49.758;9.586;2022-09-14T05:53:11;5.32;;;3.10;;
66085;SDS011;52868;49.758;9.586;2022-09-14T05:55:36;7.45;;;3.30;;
66085;SDS011;52868;49.758;9.586;2022-09-14T05:58:02;5.68;;;2.88;;
66085;SDS011;52868;49.758;9.586;2022-09-14T06:00:28;7.63;;;3.08;;
66085;SDS011;52868;49.758;9.586;2022-09-14T06:02:55;11.38;;;3.92;;
66085;SDS011;52868;49.758;9.586;2022-09-14T06:05:20;7.28;;;3.00;;
66085;SDS011;52868;49.758;9.586;2022-09-14T06:07:51;5.28;;;3.40;;
66085;SDS011;52868;49.758;9.586;2022-09-14T06:10:17;5.47;;;3.35;;
66085;SDS011;52868;49.758;9.586;2022-09-14T06:12:43;8.15;;;3.10;;
66085;SDS011;52868;49.758;9.586;2022-09-14T06:15:09;6.13;;;3.05;;
66085;SDS011;52868;49.758;9.586;2022-09-14T06:17:35;7.55;;;3.58;;
66085;SDS011;52868;49.758;9.586;2022-09-14T06:20:02;6.13;;;3.53;;
66085;SDS011;52868;49.758;9.586;2022-09-14T06:22:29;5.85;;;3.38;;
66085;SDS011;52868;49.758;9.586;2022-09-14T06:24:55;7.53;;;3.90;;
66085;SDS011;52868;49.758;9.586;2022-09-14T06:27:21;5.40;;;3.10;;
66085;SDS011;52868;49.758;9.586;2022-09-14T06:29:46;7.72;;;3.42;;
66085;SDS011;52868;49.758;9.586;2022-09-14T06:32:17;8.32;;;3.72;;
66085;SDS011;52868;49.758;9.586;2022-09-14T06:34:44;11.55;;;3.53;;
66085;SDS011;52868;49.758;9.586;2022-09-14T06:37:09;8.40;;;4.00;;
66085;SDS011;52868;49.758;9.586;2022-09-14T06:39:35;9.77;;;3.97;;
66085;SDS011;52868;49.758;9.586;2022-09-14T06:42:01;8.07;;;4.15;;
66085;SDS011;52868;49.758;9.586;2022-09-14T06:44:27;8.68;;;3.97;;
66085;SDS011;52868;49.758;9.586;2022-09-14T06:46:53;6.72;;;3.95;;
66085;SDS011;52868;49.758;9.586;2022-09-14T06:49:18;8.43;;;3.60;;
66085;SDS011;52868;49.758;9.586;2022-09-14T06:51:47;8.60;;;3.73;;
66085;SDS011;52868;49.758;9.586;2022-09-14T06:54:14;11.43;;;4.00;;
66085;SDS011;52868;49.758;9.586;2022-09-14T06:56:41;8.20;;;3.85;;
66085;SDS011;52868;49.758;9.586;2022-09-14T06:59:09;7.53;;;3.60;;
66085;SDS011;52868;49.758;9.586;2022-09-14T07:01:36;8.23;;;3.80;;
66085;SDS011;52868;49.758;9.586;2022-09-14T07:04:02;8.70;;;3.75;;
66085;SDS011;52868;49.758;9.586;2022-09-14T07:06:37;6.97;;;3.60;;
66085;SDS011;52868;49.758;9.586;2022-09-14T07:09:07;9.38;;;3.58;;
66085;SDS011;52868;49.758;9.586;2022-09-14T07:11:33;7.00;;;3.65;;
66085;SDS011;52868;49.758;9.586;2022-09-14T07:13:59;5.82;;;3.22;;
66085;SDS011;52868;49.758;9.586;2022-09-14T07:16:26;7.28;;;3.35;;
66085;SDS011;52868;49.758;9.586;2022-09-14T07:18:57;6.10;;;3.30;;
66085;SDS011;52868;49.758;9.586;2022-09-14T07:21:25;7.25;;;3.28;;
66085;SDS011;52868;49.758;9.586;2022-09-14T07:23:51;5.00;;;3.17;;
66085;SDS011;52868;49.758;9.586;2022-09-14T07:26:18;7.47;;;3.67;;
66085;SDS011;52868;49.758;9.586;2022-09-14T07:28:50;7.35;;;3.28;;
66085;SDS011;52868;49.758;9.586;2022-09-14T07:33:45;6.78;;;3.28;;
66085;SDS011;52868;49.758;9.586;2022-09-14T07:36:12;4.70;;;3.00;;
66085;SDS011;52868;49.758;9.586;2022-09-14T07:38:39;9.05;;;3.75;;
66085;SDS011;52868;49.758;9.586;2022-09-14T07:41:05;5.50;;;3.28;;
66085;SDS011;52868;49.758;9.586;2022-09-14T07:43:31;8.43;;;3.90;;
66085;SDS011;52868;49.758;9.586;2022-09-14T07:46:00;10.73;;;4.30;;
66085;SDS011;52868;49.758;9.586;2022-09-14T07:48:30;13.48;;;4.63;;
66085;SDS011;52868;49.758;9.586;2022-09-14T07:51:03;6.47;;;3.55;;
66085;SDS011;52868;49.758;9.586;2022-09-14T07:53:33;9.57;;;4.35;;
66085;SDS011;52868;49.758;9.586;2022-09-14T07:56:00;7.78;;;4.40;;
66085;SDS011;52868;49.758;9.586;2022-09-14T07:58:27;7.70;;;4.03;;
66085;SDS011;52868;49.758;9.586;2022-09-14T08:00:59;10.48;;;4.43;;
66085;SDS011;52868;49.758;9.586;2022-09-14T08:03:29;7.90;;;4.07;;
66085;SDS011;52868;49.758;9.586;2022-09-14T08:06:02;7.28;;;3.70;;
66085;SDS011;52868;49.758;9.586;2022-09-14T08:08:34;8.10;;;4.13;;
66085;SDS011;52868;49.758;9.586;2022-09-14T08:11:13;7.60;;;4.00;;
66085;SDS011;52868;49.758;9.586;2022-09-14T08:13:42;9.18;;;3.50;;
66085;SDS011;52868;49.758;9.586;2022-09-14T08:16:09;7.17;;;3.87;;
66085;SDS011;52868;49.758;9.586;2022-09-14T08:18:36;7.63;;;3.63;;
66085;SDS011;52868;49.758;9.586;2022-09-14T08:21:06;7.55;;;3.65;;
66085;SDS011;52868;49.758;9.586;2022-09-14T08:23:43;7.05;;;3.42;;
66085;SDS011;52868;49.758;9.586;2022-09-14T08:26:12;6.55;;;3.40;;
66085;SDS011;52868;49.758;9.586;2022-09-14T08:28:40;8.50;;;3.53;;
66085;SDS011;52868;49.758;9.586;2022-09-14T08:31:08;5.38;;;3.40;;
66085;SDS011;52868;49.758;9.586;2022-09-14T08:33:36;9.77;;;3.78;;
66085;SDS011;52868;49.758;9.586;2022-09-14T08:36:05;6.03;;;3.30;;
66085;SDS011;52868;49.758;9.586;2022-09-14T08:38:32;7.40;;;3.30;;
66085;SDS011;52868;49.758;9.586;2022-09-14T08:40:59;4.80;;;3.00;;
66085;SDS011;52868;49.758;9.586;2022-09-14T08:43:42;8.15;;;3.63;;
66085;SDS011;52868;49.758;9.586;2022-09-14T08:46:09;7.88;;;3.63;;
66085;SDS011;52868;49.758;9.586;2022-09-14T08:48:45;7.85;;;3.33;;
66085;SDS011;52868;49.758;9.586;2022-09-14T08:51:12;5.63;;;3.47;;
66085;SDS011;52868;49.758;9.586;2022-09-14T08:53:39;7.00;;;3.45;;
66085;SDS011;52868;49.758;9.586;2022-09-14T08:56:16;6.93;;;3.17;;
66085;SDS011;52868;49.758;9.586;2022-09-14T09:06:38;6.18;;;3.70;;
66085;SDS011;52868;49.758;9.586;2022-09-14T09:11:56;9.02;;;3.30;;
66085;SDS011;52868;49.758;9.586;2022-09-14T09:14:45;6.50;;;3.08;;
66085;SDS011;52868;49.758;9.586;2022-09-14T09:17:30;8.27;;;3.13;;
66085;SDS011;52868;49.758;9.586;2022-09-14T09:20:13;9.02;;;3.50;;
66085;SDS011;52868;49.758;9.586;2022-09-14T09:25:59;6.57;;;2.78;;
66085;SDS011;52868;49.758;9.586;2022-09-14T09:28:26;6.82;;;3.35;;
66085;SDS011;52868;49.758;9.586;2022-09-14T09:30:54;7.45;;;3.55;;
66085;SDS011;52868;49.758;9.586;2022-09-14T09:33:23;5.10;;;3.47;;
66085;SDS011;52868;49.758;9.586;2022-09-14T09:35:51;5.07;;;3.22;;
66085;SDS011;52868;49.758;9.586;2022-09-14T09:38:19;7.90;;;3.13;;
66085;SDS011;52868;49.758;9.586;2022-09-14T09:40:53;9.05;;;2.97;;
66085;SDS011;52868;49.758;9.586;2022-09-14T09:43:22;6.13;;;3.03;;
66085;SDS011;52868;49.758;9.586;2022-09-14T09:46:02;3.50;;;2.67;;
66085;SDS011;52868;49.758;9.586;2022-09-14T09:48:30;7.05;;;2.17;;
66085;SDS011;52868;49.758;9.586;2022-09-14T09:53:49;5.25;;;2.65;;
66085;SDS011;52868;49.758;9.586;2022-09-14T10:01:55;6.35;;;2.47;;
66085;SDS011;52868;49.758;9.586;2022-09-14T10:04:38;3.75;;;2.28;;
66085;SDS011;52868;49.758;9.586;2022-09-14T10:07:25;3.65;;;2.10;;
66085;SDS011;52868;49.758;9.586;2022-09-14T10:10:06;3.22;;;2.10;;
66085;SDS011;52868;49.758;9.586;2022-09-14T10:12:38;4.90;;;2.22;;
66085;SDS011;52868;49.758;9.586;2022-09-14T10:15:24;3.90;;;2.03;;
66085;SDS011;52868;49.758;9.586;2022-09-14T10:20:35;3.80;;;1.90;;
66085;SDS011;52868;49.758;9.586;2022-09-14T10:25:42;3.45;;;2.15;;
66085;SDS011;52868;49.758;9.586;2022-09-14T10:33:36;4.35;;;2.60;;
66085;SDS011;52868;49.758;9.586;2022-09-14T10:36:11;3.08;;;1.77;;
66085;SDS011;52868;49.758;9.586;2022-09-14T10:38:41;4.60;;;2.70;;
66085;SDS011;52868;49.758;9.586;2022-09-14T10:41:40;3.70;;;2.17;;
66085;SDS011;52868;49.758;9.586;2022-09-14T10:52:22;4.60;;;2.80;;
66085;SDS011;52868;49.758;9.586;2022-09-14T11:00:28;5.63;;;3.40;;
66085;SDS011;52868;49.758;9.586;2022-09-14T11:03:16;6.47;;;3.28;;
66085;SDS011;52868;49.758;9.586;2022-09-14T11:08:47;6.00;;;3.38;;
66085;SDS011;52868;49.758;9.586;2022-09-14T11:14:20;6.55;;;3.92;;
66085;SDS011;52868;49.758;9.586;2022-09-14T11:20:08;8.90;;;3.90;;
66085;SDS011;52868;49.758;9.586;2022-09-14T11:25:25;7.45;;;3.65;;
66085;SDS011;52868;49.758;9.586;2022-09-14T11:27:58;7.05;;;3.92;;
66085;SDS011;52868;49.758;9.586;2022-09-14T11:30:50;5.47;;;3.70;;
66085;SDS011;52868;49.758;9.586;2022-09-14T11:33:24;7.93;;;4.00;;
66085;SDS011;52868;49.758;9.586;2022-09-14T11:36:03;6.97;;;4.30;;
66085;SDS011;52868;49.758;9.586;2022-09-14T11:38:42;7.03;;;4.35;;
66085;SDS011;52868;49.758;9.586;2022-09-14T11:41:25;8.13;;;4.05;;
66085;SDS011;52868;49.758;9.586;2022-09-14T11:43:58;6.78;;;4.40;;
66085;SDS011;52868;49.758;9.586;2022-09-14T11:46:30;9.95;;;4.57;;
66085;SDS011;52868;49.758;9.586;2022-09-14T11:49:05;8.10;;;4.63;;
66085;SDS011;52868;49.758;9.586;2022-09-14T11:51:54;9.95;;;4.57;;
66085;SDS011;52868;49.758;9.586;2022-09-14T11:54:25;8.70;;;4.88;;
66085;SDS011;52868;49.758;9.586;2022-09-14T11:56:54;9.73;;;5.32;;
66085;SDS011;52868;49.758;9.586;2022-09-14T11:59:57;9.13;;;4.82;;
66085;SDS011;52868;49.758;9.586;2022-09-14T12:15:33;10.20;;;4.63;;
66085;SDS011;52868;49.758;9.586;2022-09-14T12:20:40;7.35;;;4.13;;
66085;SDS011;52868;49.758;9.586;2022-09-14T12:26:09;10.60;;;4.88;;
66085;SDS011;52868;49.758;9.586;2022-09-14T12:34:16;7.93;;;4.43;;
66085;SDS011;52868;49.758;9.586;2022-09-14T12:46:55;8.65;;;4.40;;
66085;SDS011;52868;49.758;9.586;2022-09-14T12:56:18;8.75;;;4.30;;
66085;SDS011;52868;49.758;9.586;2022-09-14T12:58:57;7.38;;;3.97;;
66085;SDS011;52868;49.758;9.586;2022-09-14T13:01:47;7.15;;;4.45;;
66085;SDS011;52868;49.758;9.586;2022-09-14T13:04:24;7.78;;;4.03;;
66085;SDS011;52868;49.758;9.586;2022-09-14T13:06:53;9.55;;;4.57;;
66085;SDS011;52868;49.758;9.586;2022-09-14T13:09:22;7.07;;;4.17;;
66085;SDS011;52868;49.758;9.586;2022-09-14T13:11:56;7.00;;;4.15;;
66085;SDS011;52868;49.758;9.586;2022-09-14T13:14:51;10.52;;;4.57;;
66085;SDS011;52868;49.758;9.586;2022-09-14T13:17:20;8.65;;;4.75;;
66085;SDS011;52868;49.758;9.586;2022-09-14T13:20:00;8.13;;;4.65;;
66085;SDS011;52868;49.758;9.586;2022-09-14T13:22:29;8.10;;;4.70;;
66085;SDS011;52868;49.758;9.586;2022-09-14T13:24:56;9.55;;;4.50;;
66085;SDS011;52868;49.758;9.586;2022-09-14T13:27:27;11.13;;;4.20;;
66085;SDS011;52868;49.758;9.586;2022-09-14T13:32:28;6.60;;;4.30;;
66085;SDS011;52868;49.758;9.586;2022-09-14T13:34:55;7.35;;;4.43;;
66085;SDS011;52868;49.758;9.586;2022-09-14T13:37:22;8.25;;;4.07;;
66085;SDS011;52868;49.758;9.586;2022-09-14T13:39:49;11.93;;;4.78;;
66085;SDS011;52868;49.758;9.586;2022-09-14T13:42:16;8.70;;;4.97;;
66085;SDS011;52868;49.758;9.586;2022-09-14T13:44:43;8.30;;;4.80;;
66085;SDS011;52868;49.758;9.586;2022-09-14T13:47:18;7.63;;;4.35;;
66085;SDS011;52868;49.758;9.586;2022-09-14T13:49:46;10.98;;;4.25;;
66085;SDS011;52868;49.758;9.586;2022-09-14T13:54:49;10.43;;;4.65;;
66085;SDS011;52868;49.758;9.586;2022-09-14T13:57:20;6.45;;;3.80;;
66085;SDS011;52868;49.758;9.586;2022-09-14T14:02:52;6.85;;;4.07;;
66085;SDS011;52868;49.758;9.586;2022-09-14T14:05:24;6.15;;;3.95;;
66085;SDS011;52868;49.758;9.586;2022-09-14T14:07:53;6.72;;;3.83;;
66085;SDS011;52868;49.758;9.586;2022-09-14T14:10:21;10.63;;;4.13;;
66085;SDS011;52868;49.758;9.586;2022-09-14T14:12:50;14.68;;;5.00;;
66085;SDS011;52868;49.758;9.586;2022-09-14T14:17:44;8.38;;;4.57;;
66085;SDS011;52868;49.758;9.586;2022-09-14T14:22:55;13.70;;;4.78;;
66085;SDS011;52868;49.758;9.586;2022-09-14T14:25:29;8.48;;;3.92;;
66085;SDS011;52868;49.758;9.586;2022-09-14T14:28:00;14.95;;;4.93;;
66085;SDS011;52868;49.758;9.586;2022-09-14T14:30:27;10.68;;;4.68;;
66085;SDS011;52868;49.758;9.586;2022-09-14T14:32:54;7.75;;;4.40;;
66085;SDS011;52868;49.758;9.586;2022-09-14T14:35:22;10.60;;;4.70;;
66085;SDS011;52868;49.758;9.586;2022-09-14T14:37:50;13.77;;;4.68;;
66085;SDS011;52868;49.758;9.586;2022-09-14T14:40:16;11.95;;;5.85;;
66085;SDS011;52868;49.758;9.586;2022-09-14T14:42:42;9.55;;;5.45;;
66085;SDS011;52868;49.758;9.586;2022-09-14T14:45:16;9.98;;;5.45;;
66085;SDS011;52868;49.758;9.586;2022-09-14T14:47:47;10.63;;;5.28;;
66085;SDS011;52868;49.758;9.586;2022-09-14T14:50:23;13.25;;;5.72;;
66085;SDS011;52868;49.758;9.586;2022-09-14T14:52:54;9.02;;;5.40;;
66085;SDS011;52868;49.758;9.586;2022-09-14T14:55:20;11.52;;;5.03;;
66085;SDS011;52868;49.758;9.586;2022-09-14T14:57:48;9.25;;;5.07;;
66085;SDS011;52868;49.758;9.586;2022-09-14T15:00:15;9.75;;;5.22;;
66085;SDS011;52868;49.758;9.586;2022-09-14T15:02:43;8.88;;;5.05;;
66085;SDS011;52868;49.758;9.586;2022-09-14T15:05:09;9.18;;;5.10;;
66085;SDS011;52868;49.758;9.586;2022-09-14T15:07:35;8.65;;;5.00;;
66085;SDS011;52868;49.758;9.586;2022-09-14T15:10:01;11.77;;;4.97;;
66085;SDS011;52868;49.758;9.586;2022-09-14T15:12:27;11.93;;;4.50;;
66085;SDS011;52868;49.758;9.586;2022-09-14T15:14:52;12.10;;;3.60;;
66085;SDS011;52868;49.758;9.586;2022-09-14T15:17:18;8.48;;;3.50;;
66085;SDS011;52868;49.758;9.586;2022-09-14T15:19:44;7.60;;;3.35;;
66085;SDS011;52868;49.758;9.586;2022-09-14T15:22:09;9.82;;;2.97;;
66085;SDS011;52868;49.758;9.586;2022-09-14T15:24:35;3.85;;;2.42;;
66085;SDS011;52868;49.758;9.586;2022-09-14T15:27:01;5.90;;;2.35;;
66085;SDS011;52868;49.758;9.586;2022-09-14T15:29:27;6.60;;;2.30;;
66085;SDS011;52868;49.758;9.586;2022-09-14T15:31:52;7.47;;;2.33;;
66085;SDS011;52868;49.758;9.586;2022-09-14T15:34:19;5.75;;;2.15;;
66085;SDS011;52868;49.758;9.586;2022-09-14T15:36:45;9.68;;;2.10;;
66085;SDS011;52868;49.758;9.586;2022-09-14T15:39:14;5.78;;;2.30;;
66085;SDS011;52868;49.758;9.586;2022-09-14T15:41:47;12.40;;;2.30;;
66085;SDS011;52868;49.758;9.586;2022-09-14T15:44:13;4.20;;;2.10;;
66085;SDS011;52868;49.758;9.586;2022-09-14T15:46:40;10.70;;;2.08;;
66085;SDS011;52868;49.758;9.586;2022-09-14T15:49:10;16.05;;;2.30;;
66085;SDS011;52868;49.758;9.586;2022-09-14T15:51:36;17.10;;;2.10;;
66085;SDS011;52868;49.758;9.586;2022-09-14T15:54:02;7.68;;;1.88;;
66085;SDS011;52868;49.758;9.586;2022-09-14T15:56:28;8.18;;;2.00;;
66085;SDS011;52868;49.758;9.586;2022-09-14T15:58:58;7.20;;;2.05;;
66085;SDS011;52868;49.758;9.586;2022-09-14T16:01:25;4.20;;;1.90;;
66085;SDS011;52868;49.758;9.586;2022-09-14T16:03:55;7.47;;;2.17;;
66085;SDS011;52868;49.758;9.586;2022-09-14T16:06:25;2.83;;;1.60;;
66085;SDS011;52868;49.758;9.586;2022-09-14T16:08:51;2.70;;;1.85;;
66085;SDS011;52868;49.758;9.586;2022-09-14T16:11:17;9.88;;;1.95;;
66085;SDS011;52868;49.758;9.586;2022-09-14T16:13:42;5.03;;;1.92;;
66085;SDS011;52868;49.758;9.586;2022-09-14T16:16:14;5.60;;;1.80;;
66085;SDS011;52868;49.758;9.586;2022-09-14T16:18:40;4.50;;;1.60;;
66085;SDS011;52868;49.758;9.586;2022-09-14T16:23:35;2.22;;;1.58;;
66085;SDS011;52868;49.758;9.586;2022-09-14T16:26:04;6.03;;;1.60;;
66085;SDS011;52868;49.758;9.586;2022-09-14T16:28:31;7.03;;;1.83;;
66085;SDS011;52868;49.758;9.586;2022-09-14T16:31:04;3.05;;;1.55;;
66085;SDS011;52868;49.758;9.586;2022-09-14T16:33:39;1.65;;;1.40;;
66085;SDS011;52868;49.758;9.586;2022-09-14T16:36:08;5.30;;;1.30;;
66085;SDS011;52868;49.758;9.586;2022-09-14T16:38:35;3.37;;;1.40;;
66085;SDS011;52868;49.758;9.586;2022-09-14T16:41:02;4.35;;;1.40;;
66085;SDS011;52868;49.758;9.586;2022-09-14T16:43:28;3.83;;;1.50;;
66085;SDS011;52868;49.758;9.586;2022-09-14T16:48:26;2.67;;;1.35;;
66085;SDS011;52868;49.758;9.586;2022-09-14T16:50:52;2.50;;;1.40;;
66085;SDS011;52868;49.758;9.586;2022-09-14T16:53:18;3.90;;;1.45;;
66085;SDS011;52868;49.758;9.586;2022-09-14T16:56:00;4.45;;;1.20;;
66085;SDS011;52868;49.758;9.586;2022-09-14T16:58:30;1.50;;;1.20;;
66085;SDS011;52868;49.758;9.586;2022-09-14T17:00:59;3.25;;;1.40;;
66085;SDS011;52868;49.758;9.586;2022-09-14T17:03:49;3.53;;;1.45;;
66085;SDS011;52868;49.758;9.586;2022-09-14T17:06:17;2.45;;;1.60;;
66085;SDS011;52868;49.758;9.586;2022-09-14T17:08:46;2.50;;;1.30;;
66085;SDS011;52868;49.758;9.586;2022-09-14T17:11:13;2.15;;;1.40;;
66085;SDS011;52868;49.758;9.586;2022-09-14T17:13:41;3.28;;;1.45;;
66085;SDS011;52868;49.758;9.586;2022-09-14T17:16:09;4.35;;;1.83;;
66085;SDS011;52868;49.758;9.586;2022-09-14T17:18:45;2.78;;;1.33;;
66085;SDS011;52868;49.758;9.586;2022-09-14T17:21:20;5.38;;;1.25;;
66085;SDS011;52868;49.758;9.586;2022-09-14T17:23:48;2.55;;;1.60;;
66085;SDS011;52868;49.758;9.586;2022-09-14T17:26:15;4.32;;;1.50;;
66085;SDS011;52868;49.758;9.586;2022-09-14T17:28:42;2.03;;;1.25;;
66085;SDS011;52868;49.758;9.586;2022-09-14T17:31:09;2.15;;;1.42;;
66085;SDS011;52868;49.758;9.586;2022-09-14T17:33:37;5.00;;;1.27;;
66085;SDS011;52868;49.758;9.586;2022-09-14T17:36:03;5.10;;;1.50;;